Time;durP1;ratioP1;P1;durP2;ratioP2;P2;SDS_P1;SDS_P2;PMS_P1;PMS_P2;Temp;Humidity;BMP_temperature;BMP_pressure;BME280_temperature;BME280_humidity;BME280_pressure;Samples;Min_cycle;Max_cycle;Signal;HPM_P1;HPM_P2
2022/12/18 00:02:03;;;;;;;0.10;0.10;;;;;;;-7.27;100.00;99726.38;4947772;28;20241;-62
2022/12/18 00:04:30;;;;;;;0.10;0.10;;;;;;;-7.21;100.00;99728.03;4953139;28;20325;-62
2022/12/18 00:06:57;;;;;;;0.10;0.10;;;;;;;-7.20;100.00;99726.31;4948028;28;20226;-61
2022/12/18 00:09:24;;;;;;;0.10;0.10;;;;;;;-7.20;100.00;99724.63;4954315;28;20253;-61
2022/12/18 00:11:52;;;;;;;0.10;0.10;;;;;;;-7.19;100.00;99730.53;4951228;28;20980;-62
2022/12/18 00:14:18;;;;;;;0.10;0.10;;;;;;;-7.14;100.00;99722.06;4952848;28;20237;-61
2022/12/18 00:16:47;;;;;;;0.10;0.10;;;;;;;-7.08;100.00;99733.00;4938205;28;20225;-61
2022/12/18 00:19:15;;;;;;;0.10;0.10;;;;;;;-7.07;100.00;99727.06;4950208;28;21084;-61
2022/12/18 00:21:42;;;;;;;0.10;0.10;;;;;;;-7.08;100.00;99726.22;4953782;28;20740;-61
2022/12/18 00:24:09;;;;;;;0.10;0.10;;;;;;;-7.04;100.00;99722.81;4947702;28;20234;-61
2022/12/18 00:26:37;;;;;;;0.10;0.10;;;;;;;-7.06;100.00;99726.22;4953698;28;20229;-61
2022/12/18 00:29:07;;;;;;;0.10;0.10;;;;;;;-7.08;100.00;99733.84;4950099;28;20249;-61
2022/12/18 00:31:34;;;;;;;0.10;0.10;;;;;;;-7.04;100.00;99732.97;4951528;28;20226;-62
2022/12/18 00:34:01;;;;;;;0.10;0.10;;;;;;;-7.06;100.00;99739.75;4949339;28;20691;-62
2022/12/18 00:36:29;;;;;;;0.10;0.10;;;;;;;-7.16;100.00;99744.06;4976082;28;20223;-61
2022/12/18 00:38:58;;;;;;;0.10;0.10;;;;;;;-7.22;100.00;99746.63;4960032;28;20618;-62
2022/12/18 00:44:10;;;;;;;0.10;0.10;;;;;;;-7.30;100.00;99736.53;4972814;28;20246;-62
2022/12/18 00:46:36;;;;;;;0.10;0.10;;;;;;;-7.35;100.00;99729.81;4964086;28;20233;-62
2022/12/18 00:49:03;;;;;;;0.10;0.10;;;;;;;-7.39;100.00;99723.91;4961060;28;20593;-62
2022/12/18 00:51:30;;;;;;;0.10;0.10;;;;;;;-7.37;100.00;99724.75;4965552;28;20226;-62
2022/12/18 00:53:57;;;;;;;0.10;0.10;;;;;;;-7.34;100.00;99734.03;4959436;28;20726;-62
2022/12/18 00:56:24;;;;;;;0.10;0.10;;;;;;;-7.34;100.00;99719.66;4964305;28;20227;-62
2022/12/18 00:58:51;;;;;;;0.10;0.10;;;;;;;-7.40;100.00;99712.06;4960068;28;20269;-62
2022/12/18 01:01:19;;;;;;;0.10;0.10;;;;;;;-7.37;100.00;99706.16;4963590;28;20228;-61
2022/12/18 01:03:46;;;;;;;0.10;0.10;;;;;;;-7.33;100.00;99701.03;4961203;28;20248;-62
2022/12/18 01:06:15;;;;;;;0.10;0.10;;;;;;;-7.47;100.00;99692.72;4965421;28;20232;-62
2022/12/18 01:08:41;;;;;;;0.10;0.10;;;;;;;-7.38;100.00;99696.88;4963778;28;20238;-62
2022/12/18 01:11:09;;;;;;;0.10;0.10;;;;;;;-7.35;100.00;99705.28;4961688;28;20242;-61
2022/12/18 01:13:36;;;;;;;0.10;0.10;;;;;;;-7.33;100.00;99705.28;4963028;28;20737;-61
2022/12/18 01:16:02;;;;;;;0.10;0.10;;;;;;;-7.36;100.00;99720.53;4960011;28;20241;-62
2022/12/18 01:18:30;;;;;;;0.10;0.10;;;;;;;-7.33;100.00;99733.19;4966698;28;20233;-62
2022/12/18 01:20:58;;;;;;;0.10;0.10;;;;;;;-7.41;100.00;99749.31;4963624;28;20258;-62
2022/12/18 01:23:28;;;;;;;0.10;0.10;;;;;;;-7.43;100.00;99750.19;4968738;28;20281;-62
2022/12/18 01:25:54;;;;;;;0.10;0.10;;;;;;;-7.49;100.00;99738.34;4978914;28;20231;-62
2022/12/18 01:28:21;;;;;;;0.10;0.10;;;;;;;-7.53;100.00;99731.63;4967363;28;20222;-62
2022/12/18 01:30:48;;;;;;;0.10;0.10;;;;;;;-7.45;100.00;99717.19;4963852;28;20237;-62
2022/12/18 01:33:14;;;;;;;0.10;0.10;;;;;;;-7.41;100.00;99730.69;4968231;28;20225;-62
2022/12/18 01:35:46;;;;;;;0.10;0.10;;;;;;;-7.32;100.00;99742.47;4983201;28;20317;-62
2022/12/18 01:38:12;;;;;;;0.10;0.10;;;;;;;-7.27;100.00;99748.38;4964152;28;20214;-61
2022/12/18 01:40:39;;;;;;;0.10;0.10;;;;;;;-7.24;100.00;99755.97;4981067;28;20230;-62
2022/12/18 01:43:05;;;;;;;0.10;0.10;;;;;;;-7.41;100.00;99744.22;4978609;28;20242;-62
2022/12/18 01:45:32;;;;;;;0.10;0.10;;;;;;;-7.57;100.00;99748.56;4968191;28;20213;-59
2022/12/18 01:48:01;;;;;;;0.10;0.10;;;;;;;-7.57;100.00;99743.50;4960936;28;20225;-61
2022/12/18 01:50:32;;;;;;;0.10;0.10;;;;;;;-7.46;100.00;99748.50;4964368;28;20241;-62
2022/12/18 01:53:04;;;;;;;0.07;0.07;;;;;;;-7.47;100.00;99749.34;4961629;28;20286;-62
2022/12/18 01:55:36;;;;;;;0.10;0.10;;;;;;;-7.43;100.00;99743.41;4966663;28;20649;-62
2022/12/18 01:58:04;;;;;;;0.10;0.10;;;;;;;-7.46;100.00;99737.50;4962541;28;20736;-62
2022/12/18 02:00:31;;;;;;;0.10;0.10;;;;;;;-7.46;100.00;99737.50;4966840;28;20218;-62
2022/12/18 02:02:58;;;;;;;0.10;0.10;;;;;;;-7.49;100.00;99747.69;4964915;28;20243;-62
2022/12/18 02:05:37;;;;;;;0.10;0.10;;;;;;;-7.49;100.00;99751.03;4968164;28;20236;-61
2022/12/18 02:08:11;;;;;;;0.10;0.10;;;;;;;-7.48;100.00;99755.25;4955633;28;22868;-61
2022/12/18 02:10:46;;;;;;;0.10;0.10;;;;;;;-7.43;100.00;99745.09;4979513;28;20767;-62
2022/12/18 02:13:20;;;;;;;0.10;0.10;;;;;;;-7.47;100.00;99736.66;4965418;28;20331;-62
2022/12/18 02:15:55;;;;;;;0.10;0.10;;;;;;;-7.44;100.00;99743.41;4962480;28;20229;-62
2022/12/18 02:18:28;;;;;;;0.10;0.10;;;;;;;-7.54;100.00;99744.31;4966516;28;20325;-62
2022/12/18 02:21:01;;;;;;;0.10;0.10;;;;;;;-7.54;100.00;99741.78;4962825;28;20223;-62
2022/12/18 02:23:51;;;;;;;0.10;0.10;;;;;;;-7.67;100.00;99743.53;4966717;28;20225;-61
2022/12/18 02:26:29;;;;;;;0.10;0.10;;;;;;;-7.52;100.00;99751.06;4964350;28;20313;-61
2022/12/18 02:28:59;;;;;;;0.10;0.10;;;;;;;-7.43;100.00;99748.47;4962233;28;20337;-68
2022/12/18 02:31:32;;;;;;;0.10;0.10;;;;;;;-7.37;100.00;99759.44;4966209;28;20237;-60
2022/12/18 02:34:02;;;;;;;0.10;0.10;;;;;;;-7.33;100.00;99754.31;4960228;28;20677;-60
2022/12/18 02:36:34;;;;;;;0.10;0.10;;;;;;;-7.32;100.00;99753.47;4965448;28;20307;-60
2022/12/18 02:39:03;;;;;;;0.10;0.10;;;;;;;-7.33;100.00;99756.84;4962677;28;20323;-60
2022/12/18 02:41:31;;;;;;;0.10;0.10;;;;;;;-7.40;100.00;99757.72;4966580;28;20222;-60
2022/12/18 02:44:01;;;;;;;0.10;0.10;;;;;;;-7.41;100.00;99753.50;4962219;28;20302;-60
2022/12/18 02:46:33;;;;;;;0.10;0.10;;;;;;;-7.41;100.00;99746.75;4966268;28;20229;-60
2022/12/18 02:49:12;;;;;;;0.10;0.10;;;;;;;-7.47;100.00;99735.81;4962102;28;20442;-60
2022/12/18 02:51:48;;;;;;;0.10;0.10;;;;;;;-7.55;100.00;99720.66;4965731;28;20241;-60
2022/12/18 02:54:25;;;;;;;0.10;0.10;;;;;;;-7.51;100.00;99735.00;4964815;28;20331;-59
2022/12/18 02:56:58;;;;;;;0.10;0.10;;;;;;;-7.48;100.00;99734.16;4962234;28;20288;-60
2022/12/18 02:59:32;;;;;;;0.10;0.10;;;;;;;-7.42;100.00;99747.63;4964122;28;20300;-60
2022/12/18 03:02:03;;;;;;;0.10;0.10;;;;;;;-7.47;100.00;99749.34;4960247;28;20229;-60
2022/12/18 03:04:36;;;;;;;0.10;0.10;;;;;;;-7.59;100.00;99752.81;4955114;28;20218;-60
2022/12/18 03:07:09;;;;;;;0.10;0.10;;;;;;;-7.64;100.00;99756.19;4960458;28;20349;-60
2022/12/18 03:09:40;;;;;;;0.10;0.10;;;;;;;-7.73;100.00;99769.78;4963386;28;20237;-60
2022/12/18 03:12:24;;;;;;;0.10;0.10;;;;;;;-7.76;100.00;99769.78;4962820;28;20329;-60
2022/12/18 03:14:59;;;;;;;0.10;0.10;;;;;;;-7.77;100.00;99768.09;4959671;28;20301;-60
2022/12/18 03:17:30;;;;;;;0.10;0.10;;;;;;;-7.70;100.00;99769.75;4964473;28;20215;-60
2022/12/18 03:20:02;;;;;;;0.10;0.10;;;;;;;-7.64;100.00;99769.72;4964351;28;20587;-60
2022/12/18 03:22:34;;;;;;;0.10;0.10;;;;;;;-7.52;100.00;99773.06;4965520;28;20304;-60
2022/12/18 03:25:06;;;;;;;0.10;0.10;;;;;;;-7.51;100.00;99770.50;4978435;28;20683;-59
2022/12/18 03:27:39;;;;;;;0.10;0.10;;;;;;;-7.66;100.00;99762.97;4981415;28;20213;-60
2022/12/18 03:30:12;;;;;;;0.10;0.10;;;;;;;-7.67;100.00;99757.06;4962267;28;20321;-60
2022/12/18 03:32:44;;;;;;;0.10;0.10;;;;;;;-7.66;100.00;99766.38;4962279;28;20238;-60
2022/12/18 03:35:18;;;;;;;0.10;0.10;;;;;;;-7.60;100.00;99762.94;4959934;28;20568;-60
2022/12/18 03:37:45;;;;;;;0.10;0.10;;;;;;;-7.67;99.58;99761.28;4961288;28;20306;-60
2022/12/18 03:40:12;;;;;;;0.10;0.10;;;;;;;-7.70;99.09;99764.69;4963955;28;20246;-60
2022/12/18 03:42:47;;;;;;;0.10;0.10;;;;;;;-7.65;99.58;99768.03;4964608;28;20234;-61
2022/12/18 03:45:22;;;;;;;0.10;0.10;;;;;;;-7.67;98.30;99769.75;4961819;28;20217;-60
2022/12/18 03:47:59;;;;;;;0.10;0.10;;;;;;;-7.69;98.80;99773.13;4962190;28;20225;-60
2022/12/18 03:50:35;;;;;;;0.10;0.10;;;;;;;-7.70;98.31;99777.38;4965306;28;20225;-60
2022/12/18 03:53:13;;;;;;;0.10;0.10;;;;;;;-7.74;98.28;99763.84;4976705;28;20240;-60
2022/12/18 03:55:44;;;;;;;0.10;0.10;;;;;;;-7.91;97.57;99768.16;4956066;28;20233;-60
2022/12/18 03:58:17;;;;;;;0.10;0.10;;;;;;;-7.93;97.88;99767.31;4960409;28;20305;-60
2022/12/18 04:01:05;;;;;;;0.10;0.10;;;;;;;-7.92;99.07;99772.38;4977134;28;20280;-60
2022/12/18 04:03:34;;;;;;;0.10;0.10;;;;;;;-7.81;99.53;99771.50;4958490;28;20227;-60
2022/12/18 04:06:03;;;;;;;0.10;0.10;;;;;;;-7.80;98.61;99760.50;4961089;28;20273;-60
2022/12/18 04:08:30;;;;;;;0.10;0.10;;;;;;;-7.88;98.85;99761.38;4966405;28;20300;-60
2022/12/18 04:11:04;;;;;;;0.10;0.10;;;;;;;-7.87;100.00;99768.16;4961895;28;20736;-59
2022/12/18 04:13:36;;;;;;;0.10;0.10;;;;;;;-7.83;100.00;99770.66;4978889;28;20706;-59
2022/12/18 04:16:07;;;;;;;0.10;0.10;;;;;;;-7.87;100.00;99763.06;4976983;28;20300;-60
2022/12/18 04:18:35;;;;;;;0.10;0.10;;;;;;;-7.81;100.00;99756.28;4964553;28;20614;-59
2022/12/18 04:21:02;;;;;;;0.10;0.10;;;;;;;-7.80;100.00;99741.06;4961314;28;20287;-59
2022/12/18 04:23:29;;;;;;;0.10;0.10;;;;;;;-7.78;100.00;99738.53;4964532;28;20257;-60
2022/12/18 04:25:58;;;;;;;0.10;0.10;;;;;;;-7.89;100.00;99731.81;4960534;28;20229;-60
2022/12/18 04:28:42;;;;;;;0.10;0.10;;;;;;;-7.83;100.00;99725.03;4961940;28;20240;-60
2022/12/18 04:31:09;;;;;;;0.10;0.10;;;;;;;-7.79;100.00;99731.78;5182263;23;20440;-56
2022/12/18 04:33:36;;;;;;;0.10;0.10;;;;;;;-7.76;100.00;99731.75;4978948;28;20225;-54
2022/12/18 04:36:04;;;;;;;0.10;0.10;;;;;;;-7.79;100.00;99736.84;4979001;28;20235;-54
2022/12/18 04:38:31;;;;;;;0.10;0.10;;;;;;;-7.77;100.00;99737.69;4983378;28;20228;-55
2022/12/18 04:41:04;;;;;;;0.10;0.10;;;;;;;-7.77;100.00;99745.28;4981519;28;21248;-55
2022/12/18 04:43:32;;;;;;;0.10;0.10;;;;;;;-7.90;100.00;99741.94;4983716;28;20730;-55
2022/12/18 04:46:04;;;;;;;0.10;0.10;;;;;;;-7.90;100.00;99757.16;4977926;28;20229;-55
2022/12/18 04:48:31;;;;;;;0.10;0.10;;;;;;;-7.92;100.00;99762.25;4984616;28;21253;-53
2022/12/18 04:51:01;;;;;;;0.10;0.10;;;;;;;-7.86;100.00;99763.91;4979550;28;20228;-56
2022/12/18 04:53:28;;;;;;;0.10;0.10;;;;;;;-7.91;100.00;99756.34;4988177;28;20276;-56
2022/12/18 04:56:03;;;;;;;0.10;0.10;;;;;;;-7.87;100.00;99749.53;4985900;28;20233;-55
2022/12/18 04:58:30;;;;;;;0.10;0.10;;;;;;;-7.83;100.00;99760.53;4990528;28;20228;-57
2022/12/18 05:00:56;;;;;;;0.10;0.10;;;;;;;-7.84;100.00;99766.44;4987460;28;20294;-56
2022/12/18 05:03:24;;;;;;;0.10;0.10;;;;;;;-8.03;99.87;99763.97;4989989;28;20224;-57
2022/12/18 05:05:51;;;;;;;0.10;0.10;;;;;;;-8.01;99.54;99767.34;4986209;28;20233;-56
2022/12/18 05:08:18;;;;;;;0.10;0.10;;;;;;;-8.08;99.07;99760.63;4989868;28;20284;-54
2022/12/18 05:10:45;;;;;;;0.10;0.10;;;;;;;-8.06;100.00;99767.38;4987322;28;20237;-55
2022/12/18 05:13:11;;;;;;;0.10;0.10;;;;;;;-8.04;100.00;99782.56;4990143;28;20283;-53
2022/12/18 05:15:38;;;;;;;0.10;0.10;;;;;;;-8.02;99.86;99764.00;4990787;28;20316;-56
2022/12/18 05:18:05;;;;;;;0.10;0.10;;;;;;;-8.02;98.90;99765.66;4988140;28;20290;-56
2022/12/18 05:20:33;;;;;;;0.10;0.10;;;;;;;-8.08;97.65;99771.63;4988474;28;20225;-53
2022/12/18 05:22:59;;;;;;;0.10;0.10;;;;;;;-8.24;97.53;99758.13;4985848;28;20244;-56
2022/12/18 05:25:26;;;;;;;0.10;0.10;;;;;;;-8.30;97.56;99759.00;4988538;28;20234;-57
2022/12/18 05:27:52;;;;;;;0.10;0.10;;;;;;;-8.27;97.84;99770.81;4986805;28;20225;-56
2022/12/18 05:30:19;;;;;;;0.10;0.10;;;;;;;-8.13;98.61;99770.78;4990906;28;20218;-56
2022/12/18 05:32:45;;;;;;;0.10;0.10;;;;;;;-8.07;97.86;99770.75;4986298;28;20233;-53
2022/12/18 05:35:12;;;;;;;0.10;0.10;;;;;;;-8.04;96.97;99759.75;4990985;28;20307;-55
2022/12/18 05:37:40;;;;;;;0.10;0.10;;;;;;;-7.99;97.01;99759.75;4990645;28;20237;-56
2022/12/18 05:40:08;;;;;;;0.10;0.10;;;;;;;-7.93;96.94;99765.63;4986260;28;20292;-56
2022/12/18 05:42:34;;;;;;;0.10;0.10;;;;;;;-7.89;97.70;99762.25;4988901;28;20237;-54
2022/12/18 05:45:01;;;;;;;0.10;0.10;;;;;;;-7.88;96.49;99760.53;4987305;28;20228;-55
2022/12/18 05:47:28;;;;;;;0.10;0.10;;;;;;;-7.88;97.82;99763.91;4990498;28;20229;-56
2022/12/18 05:49:55;;;;;;;0.10;0.10;;;;;;;-7.94;97.31;99758.88;4986826;28;20554;-56
2022/12/18 05:52:21;;;;;;;0.10;0.10;;;;;;;-7.99;96.15;99764.84;4991215;28;20300;-56
2022/12/18 05:54:49;;;;;;;0.10;0.10;;;;;;;-8.11;97.94;99773.31;4987334;28;20233;-57
2022/12/18 05:57:16;;;;;;;0.10;0.10;;;;;;;-8.15;100.00;99780.09;4990674;28;20628;-55
2022/12/18 05:59:42;;;;;;;0.10;0.10;;;;;;;-8.13;99.52;99772.47;4989486;28;20313;-56
2022/12/18 06:02:09;;;;;;;0.10;0.10;;;;;;;-8.38;98.98;99775.91;4987001;28;21392;-55
2022/12/18 06:04:36;;;;;;;0.10;0.10;;;;;;;-8.35;100.00;99778.44;4984376;28;20575;-56
2022/12/18 06:07:05;;;;;;;0.10;0.10;;;;;;;-8.46;99.32;99782.69;4983711;28;20712;-55
2022/12/18 06:09:32;;;;;;;0.10;0.10;;;;;;;-8.46;100.00;99796.16;4986785;28;20232;-57
2022/12/18 06:12:00;;;;;;;0.10;0.10;;;;;;;-8.33;100.00;99802.06;4983025;28;20319;-56
2022/12/18 06:14:27;;;;;;;0.10;0.10;;;;;;;-8.34;99.95;99810.50;4986093;28;20305;-55
2022/12/18 06:16:54;;;;;;;0.10;0.10;;;;;;;-8.33;100.00;99813.88;4984178;28;20320;-55
2022/12/18 06:19:20;;;;;;;0.10;0.10;;;;;;;-8.29;99.77;99823.16;4984473;28;20637;-56
2022/12/18 06:21:47;;;;;;;0.10;0.10;;;;;;;-8.46;99.01;99823.19;4983542;28;20725;-56
2022/12/18 06:24:14;;;;;;;0.10;0.10;;;;;;;-8.54;99.10;99829.97;4984555;28;20279;-54
2022/12/18 06:26:41;;;;;;;0.10;0.10;;;;;;;-8.64;98.71;99824.91;4985888;28;20310;-53
2022/12/18 06:29:09;;;;;;;0.10;0.10;;;;;;;-8.56;99.32;99824.94;4983671;28;20283;-56
2022/12/18 06:31:35;;;;;;;0.10;0.10;;;;;;;-8.56;99.59;99824.06;4985111;28;20217;-55
2022/12/18 06:34:04;;;;;;;0.10;0.10;;;;;;;-8.50;100.00;99829.13;4984425;28;20226;-55
2022/12/18 06:36:30;;;;;;;0.10;0.10;;;;;;;-8.47;100.00;99821.50;4986046;28;20579;-56
2022/12/18 06:38:57;;;;;;;0.10;0.10;;;;;;;-8.39;100.00;99827.41;4981690;28;20237;-56
2022/12/18 06:41:24;;;;;;;0.10;0.10;;;;;;;-8.29;100.00;99830.75;4985271;28;20228;-53
2022/12/18 06:43:51;;;;;;;0.10;0.10;;;;;;;-8.27;100.00;99828.25;4981829;28;20229;-56
2022/12/18 06:46:19;;;;;;;0.10;0.10;;;;;;;-8.23;99.58;99829.91;4986545;28;20221;-55
2022/12/18 06:48:48;;;;;;;0.10;0.10;;;;;;;-8.32;97.90;99826.56;4983587;28;20225;-55
2022/12/18 06:51:17;;;;;;;0.10;0.10;;;;;;;-8.43;96.72;99824.88;4985872;28;20226;-55
2022/12/18 06:53:43;;;;;;;0.10;0.10;;;;;;;-8.47;97.50;99829.94;4985719;28;20283;-56
2022/12/18 06:56:10;;;;;;;0.10;0.10;;;;;;;-8.56;96.59;99835.06;4982828;28;20231;-53
2022/12/18 06:58:36;;;;;;;0.20;0.20;;;;;;;-8.63;97.99;99829.13;4985589;28;20241;-54
2022/12/18 07:01:04;;;;;;;0.10;0.10;;;;;;;-8.57;98.44;99829.97;4981037;28;20221;-56
2022/12/18 07:03:32;;;;;;;0.10;0.10;;;;;;;-8.62;97.48;99825.75;4986776;28;20230;-57
2022/12/18 07:05:59;;;;;;;0.10;0.10;;;;;;;-8.63;96.86;99825.78;4984070;28;20223;-55
2022/12/18 07:08:25;;;;;;;0.10;0.10;;;;;;;-8.76;94.87;99829.97;4986556;28;20229;-56
2022/12/18 07:10:52;;;;;;;0.10;0.10;;;;;;;-8.70;95.68;99826.63;4980450;28;20229;-57
2022/12/18 07:13:19;;;;;;;0.10;0.10;;;;;;;-8.82;93.94;99827.44;4985890;28;20228;-56
2022/12/18 07:15:45;;;;;;;0.10;0.10;;;;;;;-8.90;93.57;99827.47;4982944;28;20687;-56
2022/12/18 07:18:12;;;;;;;0.10;0.10;;;;;;;-9.08;92.62;99829.13;4986047;28;20584;-56
2022/12/18 07:20:40;;;;;;;0.10;0.10;;;;;;;-9.12;93.60;99829.13;4986638;28;20239;-57
2022/12/18 07:23:06;;;;;;;0.10;0.10;;;;;;;-9.27;94.35;99827.38;4983735;28;20240;-56
2022/12/18 07:25:34;;;;;;;0.10;0.10;;;;;;;-9.24;93.58;99833.31;4986704;28;20701;-54
2022/12/18 07:28:01;;;;;;;0.10;0.10;;;;;;;-9.15;95.14;99840.06;4982374;28;20745;-56
2022/12/18 07:30:27;;;;;;;0.10;0.10;;;;;;;-9.13;95.08;99840.09;4985434;28;20286;-56
2022/12/18 07:32:54;;;;;;;0.10;0.10;;;;;;;-9.13;96.96;99838.38;4980679;28;20685;-56
2022/12/18 07:35:21;;;;;;;0.10;0.10;;;;;;;-9.08;97.23;99834.19;4985430;28;20224;-53
2022/12/18 07:37:49;;;;;;;0.10;0.10;;;;;;;-9.03;99.25;99835.88;4981604;28;20222;-55
2022/12/18 07:40:15;;;;;;;0.10;0.10;;;;;;;-8.98;98.94;99832.50;4986081;28;20287;-56
2022/12/18 07:42:43;;;;;;;0.10;0.10;;;;;;;-8.97;96.53;99843.47;4986065;28;20261;-56
2022/12/18 07:45:10;;;;;;;0.10;0.10;;;;;;;-9.10;93.52;99848.50;4981905;28;20895;-54
2022/12/18 07:47:37;;;;;;;0.10;0.10;;;;;;;-9.28;91.29;99849.31;4983746;28;20225;-55
2022/12/18 07:50:05;;;;;;;0.10;0.10;;;;;;;-9.38;91.93;99856.03;4982288;28;20230;-56
2022/12/18 07:52:31;;;;;;;0.10;0.10;;;;;;;-9.60;90.56;99852.59;4984136;28;20232;-55
2022/12/18 07:54:59;;;;;;;0.10;0.10;;;;;;;-9.70;90.06;99856.78;4981265;28;20280;-55
2022/12/18 07:57:26;;;;;;;0.10;0.10;;;;;;;-9.93;89.50;99871.78;4984161;28;20235;-54
2022/12/18 07:59:52;;;;;;;0.10;0.10;;;;;;;-10.02;89.56;99874.25;4981883;28;20299;-53
2022/12/18 08:02:19;;;;;;;0.10;0.10;;;;;;;-9.98;89.55;99881.03;4985252;28;20300;-54
2022/12/18 08:04:45;;;;;;;0.10;0.10;;;;;;;-9.81;90.08;99876.91;4980342;28;20293;-55
2022/12/18 08:07:12;;;;;;;0.10;0.10;;;;;;;-9.61;91.48;99880.41;4983528;28;20236;-53
2022/12/18 08:09:38;;;;;;;0.10;0.10;;;;;;;-9.40;92.10;99872.88;4983014;28;20238;-56
2022/12/18 08:12:07;;;;;;;0.10;0.10;;;;;;;-9.10;94.13;99878.03;4979956;28;20245;-56
2022/12/18 08:14:33;;;;;;;0.10;0.10;;;;;;;-8.82;95.34;99867.94;4982657;28;20231;-53
2022/12/18 08:17:00;;;;;;;0.10;0.10;;;;;;;-8.58;95.60;99874.72;4981823;28;20229;-54
2022/12/18 08:19:26;;;;;;;0.10;0.10;;;;;;;-8.36;95.21;99872.13;4984699;28;20256;-54
2022/12/18 08:21:53;;;;;;;0.10;0.10;;;;;;;-8.21;95.43;99862.00;4981328;28;20642;-56
2022/12/18 08:24:19;;;;;;;0.10;0.10;;;;;;;-8.05;94.76;99859.44;4984660;28;20221;-56
2022/12/18 08:26:46;;;;;;;0.10;0.10;;;;;;;-8.10;95.90;99859.47;4982839;28;20561;-55
2022/12/18 08:29:14;;;;;;;0.10;0.10;;;;;;;-7.91;96.49;99856.84;4981448;28;20221;-53
2022/12/18 08:31:40;;;;;;;0.10;0.10;;;;;;;-7.76;94.13;99858.50;4984546;28;20254;-57
2022/12/18 08:34:08;;;;;;;0.10;0.10;;;;;;;-7.69;92.25;99854.25;4981075;28;20697;-56
2022/12/18 08:36:35;;;;;;;0.10;0.10;;;;;;;-7.52;90.53;99855.03;4984460;28;20225;-53
2022/12/18 08:39:02;;;;;;;0.10;0.10;;;;;;;-7.73;90.12;99841.59;4980237;28;20229;-56
2022/12/18 08:41:28;;;;;;;0.10;0.10;;;;;;;-7.59;91.42;99844.09;4982782;28;20272;-54
2022/12/18 08:46:42;;;;;;;0.10;0.10;;;;;;;-7.57;90.03;99829.72;4984487;28;20236;-56
2022/12/18 08:49:10;;;;;;;0.10;0.10;;;;;;;-7.59;87.96;99821.28;4979348;28;20226;-57
2022/12/18 08:51:37;;;;;;;0.10;0.10;;;;;;;-7.74;87.52;99813.72;4983552;28;20293;-57
2022/12/18 08:54:05;;;;;;;0.10;0.10;;;;;;;-7.95;85.27;99812.13;4979844;28;20737;-56
2022/12/18 08:56:32;;;;;;;0.10;0.10;;;;;;;-8.07;84.90;99823.13;4984938;28;20275;-56
2022/12/18 08:58:59;;;;;;;0.10;0.10;;;;;;;-8.13;85.41;99815.53;4980844;28;20485;-57
2022/12/18 09:01:25;;;;;;;0.10;0.10;;;;;;;-8.08;86.52;99821.44;4984597;28;20305;-55
2022/12/18 09:03:53;;;;;;;0.10;0.10;;;;;;;-8.10;85.94;99823.97;4981131;28;20225;-54
2022/12/18 09:06:22;;;;;;;0.10;0.10;;;;;;;-8.21;85.62;99824.00;4983502;28;20232;-56
2022/12/18 09:08:48;;;;;;;0.10;0.10;;;;;;;-8.19;86.05;99829.06;4981511;28;20758;-56
2022/12/18 09:11:20;;;;;;;0.10;0.10;;;;;;;-8.20;85.28;99827.38;4983044;28;20790;-56
2022/12/18 09:13:46;;;;;;;0.10;0.10;;;;;;;-8.20;85.97;99838.34;4980259;28;20229;-56
2022/12/18 09:16:13;;;;;;;0.10;0.10;;;;;;;-8.10;87.61;99840.88;4983979;28;20547;-57
2022/12/18 09:18:40;;;;;;;0.10;0.10;;;;;;;-7.91;86.83;99852.63;4983050;28;20633;-55
2022/12/18 09:21:12;;;;;;;0.10;0.10;;;;;;;-7.79;86.32;99851.75;4980211;28;20713;-56
2022/12/18 09:23:40;;;;;;;0.10;0.10;;;;;;;-7.54;87.71;99859.28;4983433;28;20225;-57
2022/12/18 09:26:07;;;;;;;0.10;0.10;;;;;;;-7.31;87.37;99868.47;4979628;28;20247;-56
2022/12/18 09:28:34;;;;;;;0.10;0.10;;;;;;;-7.30;88.02;99875.22;4984517;28;20288;-57
2022/12/18 09:31:05;;;;;;;0.10;0.10;;;;;;;-7.60;89.22;99872.84;4980889;28;20575;-56
2022/12/18 09:33:32;;;;;;;0.10;0.10;;;;;;;-7.34;90.45;99876.94;4982000;28;20225;-57
2022/12/18 09:35:58;;;;;;;0.10;0.10;;;;;;;-7.13;90.90;99873.47;4980490;28;20268;-56
2022/12/18 09:38:26;;;;;;;0.10;0.10;;;;;;;-6.92;90.70;99883.47;4982507;28;20238;-57
2022/12/18 09:40:58;;;;;;;0.10;0.10;;;;;;;-6.86;90.14;99884.28;4983717;28;20232;-56
2022/12/18 09:43:29;;;;;;;0.10;0.10;;;;;;;-6.98;89.98;99884.38;4987368;28;20241;-56
2022/12/18 09:46:01;;;;;;;0.13;0.13;;;;;;;-6.90;90.68;99881.78;4983908;28;20229;-56
2022/12/18 09:48:31;;;;;;;0.10;0.10;;;;;;;-6.83;90.26;99876.63;4988080;28;20356;-55
2022/12/18 09:51:01;;;;;;;0.10;0.10;;;;;;;-6.78;90.04;99889.31;4979723;28;20233;-57
2022/12/18 09:53:35;;;;;;;0.10;0.10;;;;;;;-6.60;89.83;99890.88;4987754;28;20231;-55
2022/12/18 09:56:04;;;;;;;0.10;0.10;;;;;;;-6.48;89.37;99897.56;4980921;28;20292;-56
2022/12/18 09:58:36;;;;;;;0.10;0.10;;;;;;;-6.61;89.40;99906.13;4987498;28;20217;-57
2022/12/18 10:01:02;;;;;;;0.10;0.10;;;;;;;-6.69;90.19;99909.56;4983782;28;20237;-58
2022/12/18 10:03:29;;;;;;;0.10;0.10;;;;;;;-6.48;89.50;99911.97;4987363;28;20605;-56
2022/12/18 10:06:08;;;;;;;0.10;0.10;;;;;;;-6.25;89.27;99907.53;4985152;28;20640;-58
2022/12/18 10:08:46;;;;;;;0.10;0.10;;;;;;;-6.13;88.07;99908.28;4985385;28;20221;-56
2022/12/18 10:11:27;;;;;;;0.10;0.10;;;;;;;-5.93;87.04;99914.00;4984639;28;20236;-58
2022/12/18 10:14:01;;;;;;;0.10;0.10;;;;;;;-5.75;86.27;99901.94;4980831;28;20609;-57
2022/12/18 10:16:34;;;;;;;0.10;0.10;;;;;;;-5.66;85.22;99891.66;4986567;28;20221;-57
2022/12/18 10:19:17;;;;;;;0.10;0.10;;;;;;;-5.74;84.42;99875.66;4982296;28;20236;-58
2022/12/18 10:21:48;;;;;;;0.10;0.10;;;;;;;-5.89;85.10;99874.13;4985770;28;20951;-56
2022/12/18 10:24:23;;;;;;;0.10;0.10;;;;;;;-5.99;84.83;99863.22;4983729;28;20621;-56
2022/12/18 10:26:49;;;;;;;0.10;0.10;;;;;;;-6.11;85.58;99854.03;4984693;28;20222;-57
2022/12/18 10:29:17;;;;;;;0.10;0.10;;;;;;;-6.41;86.49;99850.09;4987226;28;20689;-58
2022/12/18 10:31:44;;;;;;;0.10;0.10;;;;;;;-6.56;87.75;99853.59;4986067;28;20704;-56
2022/12/18 10:34:11;;;;;;;0.10;0.10;;;;;;;-6.64;88.25;99855.38;4982744;28;20225;-56
2022/12/18 10:36:39;;;;;;;0.10;0.10;;;;;;;-6.26;89.66;99855.03;4986336;28;20233;-56
2022/12/18 10:39:22;;;;;;;0.00;0.00;;;;;;;-6.14;87.52;99861.69;4982891;28;20236;-54
2022/12/18 10:41:48;;;;;;;0.10;0.10;;;;;;;-6.00;87.86;99842.91;4983576;28;20234;-57
2022/12/18 10:44:18;;;;;;;0.10;0.10;;;;;;;-5.66;88.67;99856.06;4984352;28;20622;-56
2022/12/18 10:46:50;;;;;;;0.10;0.10;;;;;;;-5.03;85.86;99863.75;4980615;28;20241;-57
2022/12/18 10:49:23;;;;;;;0.10;0.10;;;;;;;-5.00;84.42;99856.06;4985868;28;20741;-56
2022/12/18 10:51:50;;;;;;;0.10;0.10;;;;;;;-4.84;84.70;99860.94;4981965;28;20296;-57
2022/12/18 10:54:22;;;;;;;0.10;0.10;;;;;;;-4.87;84.67;99856.75;4986015;28;20242;-57
2022/12/18 10:56:48;;;;;;;0.10;0.10;;;;;;;-4.94;84.00;99855.16;4982420;28;20222;-57
2022/12/18 10:59:17;;;;;;;0.10;0.10;;;;;;;-4.98;84.93;99856.88;4986698;28;20235;-56
2022/12/18 11:01:50;;;;;;;0.10;0.10;;;;;;;-4.47;85.52;99852.72;4985399;28;20233;-57
2022/12/18 11:04:20;;;;;;;0.00;0.00;;;;;;;-4.12;83.50;99856.34;4982198;28;20654;-56
2022/12/18 11:06:56;;;;;;;0.10;0.10;;;;;;;-4.11;81.37;99859.75;4982981;28;20238;-54
2022/12/18 11:09:26;;;;;;;0.03;0.03;;;;;;;-4.39;82.67;99860.22;4984927;28;20226;-55
2022/12/18 11:11:56;;;;;;;0.10;0.10;;;;;;;-4.68;83.06;99864.06;4983316;28;20282;-55
2022/12/18 11:14:24;;;;;;;0.10;0.10;;;;;;;-4.60;85.02;99859.69;4981823;28;20240;-55
2022/12/18 11:16:53;;;;;;;0.10;0.10;;;;;;;-4.60;84.31;99854.59;4981518;28;20245;-56
2022/12/18 11:19:30;;;;;;;0.10;0.10;;;;;;;-4.53;85.65;99856.19;4982483;28;20296;-56
2022/12/18 11:21:57;;;;;;;0.10;0.10;;;;;;;-4.47;83.24;99858.63;4981453;28;20614;-56
2022/12/18 11:24:30;;;;;;;0.00;0.00;;;;;;;-4.29;82.14;99866.84;4984546;28;20695;-57
2022/12/18 11:26:58;;;;;;;0.10;0.10;;;;;;;-4.11;82.83;99862.31;4981235;28;20239;-56
2022/12/18 11:29:30;;;;;;;0.10;0.10;;;;;;;-3.99;83.66;99854.44;4985253;28;20222;-56
2022/12/18 11:32:24;;;;;;;0.10;0.10;;;;;;;-4.07;81.14;99848.63;4979925;28;20237;-56
2022/12/18 11:34:57;;;;;;;0.10;0.10;;;;;;;-3.81;82.86;99852.41;4982523;28;20293;-55
2022/12/18 11:37:24;;;;;;;0.10;0.10;;;;;;;-3.73;81.69;99853.94;4983148;28;20223;-57
2022/12/18 11:39:56;;;;;;;0.10;0.10;;;;;;;-3.64;80.29;99842.69;4981159;28;20235;-56
2022/12/18 11:42:28;;;;;;;0.10;0.10;;;;;;;-3.74;79.75;99836.94;4983933;28;20638;-57
2022/12/18 11:44:59;;;;;;;0.00;0.00;;;;;;;-4.19;81.64;99831.81;4980058;28;20643;-57